Etusivu
METAR-TAF:

METAR-TAF

Lentoasemat :

Kuningas Fahdin kansainvälinen lentoasema

Dammam, Saudi-Arabia

Leveyspiiri: 26-28N, Pituuspiiri: 049-47E, korkeus merenpinnasta: 22 m

Tämänhetkinen sää

Tämä raportti tehtiin 14 minuuttia sitten, kello 14.00 UTC
Tuuli 11 kn pohjoisesta/koillisesta
Lämpötila 24°C
Kosteus 34%
Ilmanpaine 1012 hPa
Näkyvyys: 6000 m
Muutamia pilviä 4000 ft:n korkeudessa
Hajonneita pilviä 10000 ft:n korkeudessa

METAR: OEDF 201400Z 02011KT 6000 FEW040 BKN100 24/07 Q1012 NOSIG

Aika: 17:14 (14:14 UTC)

Sääennuste

Tämä raportti tehtiin 5 tuntia ja 14 minuuttia sitten, kello 09.00 UTC
Ennuste voimassa 20. päivästä klo 12 UTC - 21. päivään klo 18 UTC
Tuuli 10 kn pohjoisen/luoteesta puuskistuen 20 kn:hen
Näkyvyys: 8000 m

TAF: OEDF 200900Z 2012/2118 33010G20KT 8000 NSC

Säähavainnot ja -ennusteet yli 4000 lentoasemalta (METAR- ja TAF-raportit).

Käytössä olevat sääasemat on merkitty karttaan keltaisilla ja punaisilla pisteillä.

Aseta hiiri pisteen päälle nähdäksesi sääaseman nimen.

Klikkaa sitten nähdäksesi säähavainnot ja -ennusteet.

Kartan vaihtaminen: klikkaa mustalla rastilla varustettuja vihreitä pisteitä, niin voit zoomata sisään; viivalla varustettua vihreää pistettä, niin voit zoomata ulos tai vihreitä nuolia, niin pääset viereisille kartoille.


METAR-TAF: